• Join FlightAware (Why Join?)
  • Login
  • US Flag 
01:45AM EDT


 

Airport Tracker/Info


-or-


 

Live Flight TrackerFlight Track Log ✈ MSR45 ✈ 09-Jul-2013 ✈ HEGN / HRG - HECA / CAI

Flight Track Log - Related Links

Times and Time Zones

All times are in EDT time to prevent confusion due to time zone crossing. See the MSR45 flight status page for this flight to view local times or setup timezone preferences in your user account.

Time Position Orientation Groundspeed Altitude Reporting Facility
EDT Latitude Longitude Course Direction KTS MPH feet Rate Location/Type
06:26PM 27.6223 33.4489 325° Northwest  Level Estimated
06:27PM 27.6962 33.3902 325° Northwest  Level Estimated
06:28PM 27.7701 33.3315 325° Northwest  Level Estimated
06:29PM 27.8439 33.2726 325° Northwest  Level Estimated
06:30PM 27.9178 33.2137 325° Northwest  Level Estimated
06:31PM 27.9916 33.1547 325° Northwest  Level Estimated
06:32PM 28.0653 33.0956 325° Northwest  Level Estimated
06:33PM 28.1391 33.0364 325° Northwest  Level Estimated
06:34PM 28.2128 32.9771 325° Northwest  Level Estimated
06:35PM 28.2866 32.9178 325° Northwest  Level Estimated
06:36PM 28.3602 32.8584 325° Northwest  Level Estimated
06:37PM 28.4339 32.7989 325° Northwest  Level Estimated
06:38PM 28.5075 32.7393 325° Northwest  Level Estimated
06:39PM 28.5811 32.6796 325° Northwest  Level Estimated
06:40PM 28.6547 32.6199 325° Northwest  Level Estimated
06:41PM 28.7283 32.5600 325° Northwest  Level Estimated
06:42PM 28.8018 32.5001 324° Northwest  Level Estimated
06:43PM 28.8753 32.4401 324° Northwest  Level Estimated
06:44PM 28.9487 32.3800 324° Northwest  Level Estimated
06:45PM 29.0222 32.3198 324° Northwest  Level Estimated
06:46PM 29.0956 32.2596 324° Northwest  Level Estimated
06:47PM 29.1690 32.1992 324° Northwest  Level Estimated
06:48PM 29.2423 32.1388 324° Northwest  Level Estimated
06:49PM 29.3157 32.0783 324° Northwest  Level Estimated
06:50PM 29.3890 32.0177 324° Northwest  Level Estimated
06:51PM 29.4623 31.9570 324° Northwest  Level Estimated
06:52PM 29.5355 31.8962 324° Northwest  Level Estimated
06:53PM 29.6088 31.8353 324° Northwest  Level Estimated
06:54PM 29.6820 31.7744 324° Northwest  Level Estimated
06:55PM 29.7551 31.7133 324° Northwest  Level Estimated
06:56PM 29.8283 31.6522 324° Northwest  Level Estimated
06:57PM 29.9014 31.5909 324° Northwest  Level Estimated
06:58PM 29.9745 31.5296 324° Northwest  Level Estimated
06:59PM 30.0475 31.4682 324° Northwest  Level Estimated
07:00PM 30.1206 31.4067 324° Northwest  Level Estimated
07:01PM 30.1219 31.4056 324° Northwest  Level Estimated
07:02PM 30.1219 31.4056 319° Northwest  Level Estimated
07:03PM 30.1219 31.4056 319° Northwest  Level Estimated
07:04PM 30.1219 31.4056 319° Northwest  Level Estimated
07:05PM 30.1219 31.4056 319° Northwest  Level Estimated
07:06PM 30.1219 31.4056 319° Northwest  Level Estimated
07:07PM 30.1219 31.4056 319° Northwest  Level Estimated
07:08PM 30.1219 31.4056 319° Northwest  Level Estimated
07:09PM 30.1219 31.4056 319° Northwest  Level Estimated
07:10PM 30.1219 31.4056 319° Northwest  Level Estimated
07:11PM 30.1219 31.4056 319° Northwest  Level Estimated
07:12PM 30.1219 31.4056 319° Northwest  Level Estimated
07:13PM 30.1219 31.4056 319° Northwest  Level Estimated
07:14PM 30.1219 31.4056 319° Northwest  Level Estimated
07:15PM 30.1219 31.4056 319° Northwest  Level Estimated
07:16PM 30.1219 31.4056 319° Northwest  Level Estimated